createdAt,value
2019-03-18T00:00:19.989Z,947.76
2019-03-18T00:01:19.972Z,947.82
2019-03-18T00:02:19.954Z,947.91
2019-03-18T00:03:19.937Z,947.95
2019-03-18T00:04:19.920Z,947.88
2019-03-18T00:05:19.904Z,947.87
2019-03-18T00:06:19.886Z,947.76
2019-03-18T00:07:19.869Z,947.74
2019-03-18T00:08:19.851Z,947.75
2019-03-18T00:09:19.833Z,947.68
2019-03-18T00:10:19.816Z,947.67
2019-03-18T00:11:19.799Z,947.6
2019-03-18T00:12:19.783Z,947.61
2019-03-18T00:13:19.766Z,947.62
2019-03-18T00:14:19.748Z,947.66
2019-03-18T00:15:19.731Z,947.67
2019-03-18T00:16:19.713Z,947.65
2019-03-18T00:17:19.698Z,947.67
2019-03-18T00:18:19.681Z,947.68
2019-03-18T00:19:19.662Z,947.7
2019-03-18T00:20:19.644Z,947.69
2019-03-18T00:21:19.628Z,947.66
2019-03-18T00:22:19.610Z,947.67
2019-03-18T00:23:19.595Z,947.69
2019-03-18T00:24:19.577Z,947.72
2019-03-18T00:25:19.562Z,947.82
2019-03-18T00:26:19.542Z,947.79
2019-03-18T00:27:19.525Z,947.86
2019-03-18T00:28:19.509Z,947.87
2019-03-18T00:29:19.491Z,947.86
2019-03-18T00:30:19.481Z,947.84
2019-03-18T00:31:19.459Z,947.78
2019-03-18T00:32:19.439Z,947.79
2019-03-18T00:33:19.422Z,947.76
2019-03-18T00:34:19.404Z,947.77
2019-03-18T00:35:19.388Z,947.81
2019-03-18T00:36:19.371Z,947.79
2019-03-18T00:37:19.354Z,947.73
2019-03-18T00:38:19.337Z,947.71
2019-03-18T00:39:19.318Z,947.61
2019-03-18T00:40:19.309Z,947.61
2019-03-18T00:41:19.285Z,947.62
2019-03-18T00:42:19.266Z,947.58
2019-03-18T00:43:19.250Z,947.53
2019-03-18T00:44:19.234Z,947.54
2019-03-18T00:45:19.216Z,947.55
2019-03-18T00:46:19.201Z,947.56
2019-03-18T00:47:19.180Z,947.52
2019-03-18T00:48:19.164Z,947.57
2019-03-18T00:49:19.147Z,947.59
2019-03-18T00:50:19.132Z,947.62
2019-03-18T00:51:19.111Z,947.67
2019-03-18T00:52:19.095Z,947.71
2019-03-18T00:53:19.076Z,947.75
2019-03-18T00:54:19.061Z,947.71
2019-03-18T00:55:19.042Z,947.77
2019-03-18T00:56:19.025Z,947.75
2019-03-18T00:57:19.007Z,947.84
2019-03-18T00:58:18.991Z,947.86
2019-03-18T00:59:18.987Z,947.94
2019-03-18T01:00:18.959Z,947.82
2019-03-18T01:01:18.938Z,947.9
2019-03-18T01:02:18.923Z,947.86
2019-03-18T01:03:18.904Z,947.8
2019-03-18T01:04:18.887Z,947.77
2019-03-18T01:05:18.868Z,947.79
2019-03-18T01:06:18.852Z,947.78
2019-03-18T01:07:18.833Z,947.8
2019-03-18T01:08:18.816Z,947.83
2019-03-18T01:09:18.798Z,947.81
2019-03-18T01:10:18.780Z,947.77
2019-03-18T01:11:18.764Z,947.72
2019-03-18T01:12:18.745Z,947.74
2019-03-18T01:13:18.728Z,947.74
2019-03-18T01:14:18.713Z,947.8
2019-03-18T01:15:27.774Z,947.78
2019-03-18T01:16:18.682Z,947.82
2019-03-18T01:17:18.665Z,947.8
2019-03-18T01:18:18.641Z,947.8
2019-03-18T01:19:18.623Z,947.84
2019-03-18T01:20:18.607Z,947.79
2019-03-18T01:21:18.588Z,947.79
2019-03-18T01:22:18.573Z,947.83
2019-03-18T01:23:18.552Z,947.87
2019-03-18T01:24:18.535Z,947.92
2019-03-18T01:25:18.520Z,948.05
2019-03-18T01:26:18.499Z,948.09
2019-03-18T01:27:18.483Z,948.13
2019-03-18T01:28:18.466Z,948.04
2019-03-18T01:29:18.448Z,948.07
2019-03-18T01:30:18.429Z,948.12
2019-03-18T01:31:18.411Z,948.09
2019-03-18T01:32:18.397Z,948.17
2019-03-18T01:33:18.378Z,948.15
2019-03-18T01:34:18.362Z,948.12
2019-03-18T01:35:18.344Z,948.08
2019-03-18T01:36:18.330Z,948.04
2019-03-18T01:37:18.309Z,948.02
2019-03-18T01:38:18.290Z,948.03
2019-03-18T01:39:18.274Z,948.01
2019-03-18T01:40:18.256Z,948.01
2019-03-18T01:41:18.237Z,947.96
2019-03-18T01:42:18.221Z,948.03
2019-03-18T01:43:18.208Z,948.08
2019-03-18T01:44:18.186Z,948.22
2019-03-18T01:45:18.167Z,948.2
2019-03-18T01:46:18.153Z,948.25
2019-03-18T01:47:18.136Z,948.2
2019-03-18T01:48:18.119Z,948.2
2019-03-18T01:49:18.098Z,948.21
2019-03-18T01:50:18.081Z,948.25
2019-03-18T01:51:18.064Z,948.14
2019-03-18T01:52:18.046Z,948.15
2019-03-18T01:53:18.028Z,948.14
2019-03-18T01:54:18.012Z,948.09
2019-03-18T01:55:17.992Z,948.06
2019-03-18T01:56:17.978Z,948.12
2019-03-18T01:57:17.959Z,948.09
2019-03-18T01:58:17.941Z,948.05
2019-03-18T01:59:17.923Z,948.13
2019-03-18T02:00:17.907Z,948.11
2019-03-18T02:01:17.892Z,948.09
2019-03-18T02:02:17.872Z,948.1
2019-03-18T02:03:17.857Z,948.09
2019-03-18T02:04:17.837Z,948.12
2019-03-18T02:05:17.819Z,948.13
2019-03-18T02:06:17.801Z,948.14
2019-03-18T02:07:17.786Z,948.18
2019-03-18T02:08:17.766Z,948.19
2019-03-18T02:09:17.750Z,948.22
2019-03-18T02:10:17.731Z,948.29
2019-03-18T02:11:17.715Z,948.35
2019-03-18T02:12:17.696Z,948.31
2019-03-18T02:13:17.679Z,948.36
2019-03-18T02:14:17.661Z,948.24
2019-03-18T02:15:17.644Z,948.23
2019-03-18T02:16:17.627Z,948.17
2019-03-18T02:17:17.625Z,948.2
2019-03-18T02:18:17.595Z,948.28
2019-03-18T02:19:17.575Z,948.28
2019-03-18T02:20:19.539Z,948.33
2019-03-18T02:21:17.539Z,948.36
2019-03-18T02:22:17.522Z,948.39
2019-03-18T02:23:17.504Z,948.39
2019-03-18T02:24:17.489Z,948.4
2019-03-18T02:25:17.469Z,948.44
2019-03-18T02:26:17.450Z,948.35
2019-03-18T02:27:17.432Z,948.35
2019-03-18T02:28:17.414Z,948.33
2019-03-18T02:29:17.397Z,948.3
2019-03-18T02:30:17.387Z,948.38
2019-03-18T02:31:17.377Z,948.38
2019-03-18T02:32:17.347Z,948.37
2019-03-18T02:33:17.341Z,948.37
2019-03-18T02:34:17.311Z,948.39
2019-03-18T02:35:17.292Z,948.4
2019-03-18T02:36:17.273Z,948.41
2019-03-18T02:37:17.256Z,948.48
2019-03-18T02:38:17.238Z,948.49
2019-03-18T02:39:17.234Z,948.39
2019-03-18T02:40:17.202Z,948.49
2019-03-18T02:41:17.185Z,948.57
2019-03-18T02:42:17.171Z,948.53
2019-03-18T02:43:17.151Z,948.59
2019-03-18T02:44:17.132Z,948.62
2019-03-18T02:45:17.122Z,948.62
2019-03-18T02:46:17.098Z,948.53
2019-03-18T02:47:17.095Z,948.6
2019-03-18T02:48:17.060Z,948.63
2019-03-18T02:49:17.042Z,948.65
2019-03-18T02:50:17.028Z,948.71
2019-03-18T02:51:17.008Z,948.76
2019-03-18T02:52:16.987Z,948.8
2019-03-18T02:53:16.975Z,948.77
2019-03-18T02:54:16.953Z,948.84
2019-03-18T02:55:16.934Z,948.85
2019-03-18T02:56:16.921Z,948.88
2019-03-18T02:57:16.899Z,948.9
2019-03-18T02:58:16.881Z,948.96
2019-03-18T02:59:16.861Z,948.97
2019-03-18T03:00:16.848Z,948.97
2019-03-18T03:01:16.823Z,948.97
2019-03-18T03:02:16.806Z,949.09
2019-03-18T03:03:16.789Z,949.09
2019-03-18T03:04:16.773Z,949.11
2019-03-18T03:05:16.760Z,949.04
2019-03-18T03:06:16.737Z,949.05
2019-03-18T03:07:16.717Z,949.09
2019-03-18T03:08:16.702Z,949.1
2019-03-18T03:09:16.680Z,949.09
2019-03-18T03:10:16.674Z,949.1
2019-03-18T03:11:16.647Z,949.12
2019-03-18T03:12:16.628Z,949.13
2019-03-18T03:13:16.607Z,949.07
2019-03-18T03:14:16.597Z,949.03
2019-03-18T03:15:16.575Z,949.07
2019-03-18T03:16:25.954Z,949.09
2019-03-18T03:17:16.541Z,949.07
2019-03-18T03:18:16.521Z,949
2019-03-18T03:19:16.508Z,949.03
2019-03-18T03:20:16.480Z,949.05
2019-03-18T03:21:16.463Z,949.01
2019-03-18T03:22:16.450Z,948.98
2019-03-18T03:23:16.426Z,949.04
2019-03-18T03:24:16.411Z,949
2019-03-18T03:25:16.389Z,949.09
2019-03-18T03:26:16.374Z,949.06
2019-03-18T03:27:16.351Z,949.1
2019-03-18T03:28:16.334Z,949.06
2019-03-18T03:29:16.317Z,949.08
2019-03-18T03:30:16.297Z,949.12
2019-03-18T03:31:16.318Z,949.17
2019-03-18T03:32:16.264Z,949.08
2019-03-18T03:33:16.261Z,949.08
2019-03-18T03:34:16.225Z,949.08
2019-03-18T03:35:16.214Z,949.03
2019-03-18T03:36:16.189Z,949.05
2019-03-18T03:37:16.169Z,949.01
2019-03-18T03:38:16.151Z,949.1
2019-03-18T03:39:16.136Z,949.13
2019-03-18T03:40:16.116Z,949.1
2019-03-18T03:41:17.977Z,949.09
2019-03-18T03:42:16.077Z,949.11
2019-03-18T03:43:16.058Z,949.1
2019-03-18T03:44:16.039Z,949.06
2019-03-18T03:45:16.023Z,949.09
2019-03-18T03:46:16.004Z,949.06
2019-03-18T03:47:15.984Z,949.04
2019-03-18T03:48:15.968Z,949.08
2019-03-18T03:49:15.948Z,949.02
2019-03-18T03:50:15.940Z,949.07
2019-03-18T03:51:15.914Z,949.09
2019-03-18T03:52:15.894Z,949.09
2019-03-18T03:53:15.878Z,949.12
2019-03-18T03:54:15.867Z,949.11
2019-03-18T03:55:15.839Z,949.13
2019-03-18T03:56:15.828Z,949.05
2019-03-18T03:57:15.803Z,949.13
2019-03-18T03:58:15.797Z,949.16
2019-03-18T03:59:15.768Z,949.24
2019-03-18T04:00:15.747Z,949.22
2019-03-18T04:01:15.729Z,949.23
2019-03-18T04:02:15.710Z,949.2
2019-03-18T04:03:15.689Z,949.24
2019-03-18T04:04:15.673Z,949.23
2019-03-18T04:05:15.663Z,949.19
2019-03-18T04:06:15.633Z,949.25
2019-03-18T04:07:15.617Z,949.24
2019-03-18T04:08:15.599Z,949.19
2019-03-18T04:09:15.578Z,949.21
2019-03-18T04:10:15.561Z,949.25
2019-03-18T04:11:15.541Z,949.31
2019-03-18T04:12:15.524Z,949.33
2019-03-18T04:13:15.504Z,949.34
2019-03-18T04:14:15.486Z,949.32
2019-03-18T04:15:15.495Z,949.28
2019-03-18T04:16:15.450Z,949.36
2019-03-18T04:17:15.435Z,949.5
2019-03-18T04:18:15.412Z,949.49
2019-03-18T04:19:15.396Z,949.5
2019-03-18T04:20:15.377Z,949.56
2019-03-18T04:21:15.374Z,949.53
2019-03-18T04:22:15.346Z,949.61
2019-03-18T04:23:15.319Z,949.61
2019-03-18T04:24:15.311Z,949.61
2019-03-18T04:25:15.367Z,949.61
2019-03-18T04:26:15.266Z,949.64
2019-03-18T04:27:15.262Z,949.65
2019-03-18T04:28:15.226Z,949.66
2019-03-18T04:29:15.207Z,949.67
2019-03-18T04:30:15.255Z,949.69
2019-03-18T04:31:15.171Z,949.76
2019-03-18T04:32:15.155Z,949.74
2019-03-18T04:33:15.134Z,949.76
2019-03-18T04:34:15.118Z,949.8
2019-03-18T04:35:15.102Z,949.78
2019-03-18T04:36:15.079Z,949.82
2019-03-18T04:37:15.061Z,949.83
2019-03-18T04:38:15.043Z,949.8
2019-03-18T04:39:15.025Z,949.85
2019-03-18T04:40:15.004Z,949.85
2019-03-18T04:41:14.986Z,949.84
2019-03-18T04:42:14.967Z,949.86
2019-03-18T04:43:14.949Z,949.79
2019-03-18T04:44:14.931Z,949.75
2019-03-18T04:45:14.916Z,949.71
2019-03-18T04:46:14.899Z,949.75
2019-03-18T04:47:14.880Z,949.78
2019-03-18T04:48:14.858Z,949.76
2019-03-18T04:49:14.841Z,949.75
2019-03-18T04:50:14.825Z,949.75
2019-03-18T04:51:14.804Z,949.77
2019-03-18T04:52:14.787Z,949.71
2019-03-18T04:53:14.768Z,949.69
2019-03-18T04:54:14.749Z,949.71
2019-03-18T04:55:14.730Z,949.71
2019-03-18T04:56:14.712Z,949.72
2019-03-18T04:57:14.696Z,949.68
2019-03-18T04:58:14.678Z,949.73
2019-03-18T04:59:14.657Z,949.71
2019-03-18T05:00:14.644Z,949.75
2019-03-18T05:01:14.622Z,949.76
2019-03-18T05:02:16.742Z,949.81
2019-03-18T05:03:14.586Z,949.74
2019-03-18T05:04:14.569Z,949.82
2019-03-18T05:05:14.549Z,949.86
2019-03-18T05:06:14.542Z,949.84
2019-03-18T05:07:14.513Z,949.78
2019-03-18T05:08:14.497Z,949.77
2019-03-18T05:09:14.477Z,949.79
2019-03-18T05:10:14.462Z,949.72
2019-03-18T05:11:14.441Z,949.66
2019-03-18T05:12:14.423Z,949.62
2019-03-18T05:13:14.404Z,949.62
2019-03-18T05:14:14.385Z,949.54
2019-03-18T05:15:14.368Z,949.57
2019-03-18T05:16:14.349Z,949.57
2019-03-18T05:17:25.767Z,949.6
2019-03-18T05:18:14.313Z,949.59
2019-03-18T05:19:14.297Z,949.59
2019-03-18T05:20:14.280Z,949.55
2019-03-18T05:21:14.261Z,949.61
2019-03-18T05:22:14.240Z,949.57
2019-03-18T05:23:14.224Z,949.48
2019-03-18T05:24:14.203Z,949.51
2019-03-18T05:25:14.187Z,949.52
2019-03-18T05:26:14.168Z,949.51
2019-03-18T05:27:14.151Z,949.48
2019-03-18T05:28:14.134Z,949.5
2019-03-18T05:29:14.115Z,949.56
2019-03-18T05:30:14.097Z,949.54
2019-03-18T05:31:14.078Z,949.59
2019-03-18T05:32:14.060Z,949.67
2019-03-18T05:33:14.041Z,949.66
2019-03-18T05:34:14.024Z,949.7
2019-03-18T05:35:14.006Z,949.74
2019-03-18T05:36:13.989Z,949.73
2019-03-18T05:37:13.970Z,949.68
2019-03-18T05:38:13.951Z,949.72
2019-03-18T05:39:13.933Z,949.73
2019-03-18T05:40:13.915Z,949.74
2019-03-18T05:41:13.899Z,949.71
2019-03-18T05:42:13.879Z,949.77
2019-03-18T05:43:13.861Z,949.75
2019-03-18T05:44:13.847Z,949.78
2019-03-18T05:45:13.828Z,949.81
2019-03-18T05:46:13.808Z,949.83
2019-03-18T05:47:13.790Z,949.89
2019-03-18T05:48:13.772Z,949.84
2019-03-18T05:49:13.752Z,949.82
2019-03-18T05:50:13.734Z,949.8
2019-03-18T05:51:13.717Z,949.84
2019-03-18T05:52:13.700Z,949.82
2019-03-18T05:53:13.681Z,949.74
2019-03-18T05:54:13.664Z,949.73
2019-03-18T05:55:13.647Z,949.65
2019-03-18T05:56:13.629Z,949.62
2019-03-18T05:57:13.610Z,949.67
2019-03-18T05:58:13.591Z,949.65
2019-03-18T05:59:13.578Z,949.73
2019-03-18T06:00:13.556Z,949.76
2019-03-18T06:01:13.537Z,949.77
2019-03-18T06:02:13.521Z,949.74
2019-03-18T06:03:13.502Z,949.81
2019-03-18T06:04:13.486Z,949.85
2019-03-18T06:05:13.466Z,949.92
2019-03-18T06:06:13.448Z,949.91
2019-03-18T06:07:13.431Z,949.98
2019-03-18T06:08:13.412Z,949.99
2019-03-18T06:09:13.393Z,949.98
2019-03-18T06:10:13.375Z,949.97
2019-03-18T06:11:13.359Z,950.06
2019-03-18T06:12:13.349Z,950.03
2019-03-18T06:13:13.323Z,950.06
2019-03-18T06:14:13.313Z,950.09
2019-03-18T06:15:13.286Z,950.06
2019-03-18T06:16:13.268Z,950.11
2019-03-18T06:17:13.251Z,950.11
2019-03-18T06:18:13.233Z,950.07
2019-03-18T06:19:13.215Z,950.13
2019-03-18T06:20:13.199Z,950.09
2019-03-18T06:21:13.184Z,950.12
2019-03-18T06:22:13.165Z,950.2
2019-03-18T06:23:13.143Z,950.23
2019-03-18T06:24:13.126Z,950.19
2019-03-18T06:25:13.109Z,950.22
2019-03-18T06:26:13.089Z,950.16
2019-03-18T06:27:13.072Z,950.13
2019-03-18T06:28:13.055Z,950.14
2019-03-18T06:29:13.037Z,950.14
2019-03-18T06:30:13.018Z,950.18
2019-03-18T06:31:12.999Z,950.16
2019-03-18T06:32:12.983Z,950.16
2019-03-18T06:33:12.967Z,950.17
2019-03-18T06:34:12.949Z,950.21
2019-03-18T06:35:12.929Z,950.17
2019-03-18T06:36:12.911Z,950.18
2019-03-18T06:37:12.894Z,950.17
2019-03-18T06:38:12.878Z,950.24
2019-03-18T06:39:12.860Z,950.28
2019-03-18T06:40:12.841Z,950.25
2019-03-18T06:41:12.824Z,950.31
2019-03-18T06:42:12.807Z,950.26
2019-03-18T06:43:12.790Z,950.24
2019-03-18T06:44:12.770Z,950.29
2019-03-18T06:45:12.754Z,950.26
2019-03-18T06:46:12.738Z,950.31
2019-03-18T06:47:12.719Z,950.24
2019-03-18T06:48:12.702Z,950.18
2019-03-18T06:49:12.685Z,950.29
2019-03-18T06:50:12.674Z,950.3
2019-03-18T06:51:12.650Z,950.24
2019-03-18T06:52:12.633Z,950.27
2019-03-18T06:53:12.616Z,950.26
2019-03-18T06:54:12.600Z,950.17
2019-03-18T06:55:12.581Z,950.23
2019-03-18T06:56:12.564Z,950.21
2019-03-18T06:57:12.546Z,950.21
2019-03-18T06:58:12.536Z,950.14
2019-03-18T06:59:12.514Z,950.14
2019-03-18T07:00:12.494Z,950.15
2019-03-18T07:01:12.479Z,950.23
2019-03-18T07:02:12.460Z,950.22
2019-03-18T07:03:12.474Z,950.27
2019-03-18T07:04:12.426Z,950.18
2019-03-18T07:05:12.410Z,950.24
2019-03-18T07:06:12.391Z,950.17
2019-03-18T07:07:12.375Z,950.19
2019-03-18T07:08:12.357Z,950.2
2019-03-18T07:09:12.340Z,950.26
2019-03-18T07:10:12.321Z,950.27
2019-03-18T07:11:12.305Z,950.28
2019-03-18T07:12:12.288Z,950.28
2019-03-18T07:13:12.272Z,950.25
2019-03-18T07:14:12.254Z,950.3
2019-03-18T07:15:12.242Z,950.28
2019-03-18T07:16:12.220Z,950.34
2019-03-18T07:17:12.203Z,950.37
2019-03-18T07:18:17.859Z,950.37
2019-03-18T07:19:12.169Z,950.37
2019-03-18T07:20:12.154Z,950.38
2019-03-18T07:21:14.554Z,950.39
2019-03-18T07:22:12.118Z,950.4
2019-03-18T07:23:12.102Z,950.38
2019-03-18T07:24:12.083Z,950.41
2019-03-18T07:25:12.067Z,950.42
2019-03-18T07:26:12.051Z,950.47
2019-03-18T07:27:12.034Z,950.5
2019-03-18T07:28:12.017Z,950.49
2019-03-18T07:29:12.000Z,950.49
2019-03-18T07:30:11.984Z,950.47
2019-03-18T07:31:11.967Z,950.5
2019-03-18T07:32:11.949Z,950.52
2019-03-18T07:33:11.934Z,950.52
2019-03-18T07:34:11.917Z,950.6
2019-03-18T07:35:11.900Z,950.6
2019-03-18T07:36:11.884Z,950.64
2019-03-18T07:37:11.892Z,950.68
2019-03-18T07:38:11.850Z,950.69
2019-03-18T07:39:11.833Z,950.69
2019-03-18T07:40:11.879Z,950.75
2019-03-18T07:41:11.801Z,950.73
2019-03-18T07:42:11.783Z,950.79
2019-03-18T07:43:11.765Z,950.85
2019-03-18T07:44:11.756Z,950.82
2019-03-18T07:45:11.736Z,950.94
2019-03-18T07:46:11.716Z,950.89
2019-03-18T07:47:11.702Z,950.85
2019-03-18T07:48:12.595Z,950.75
2019-03-18T07:49:11.666Z,950.79
2019-03-18T07:50:11.648Z,950.83
2019-03-18T07:51:11.631Z,950.85
2019-03-18T07:52:11.617Z,950.81
2019-03-18T07:53:11.599Z,950.89
2019-03-18T07:54:11.583Z,950.88
2019-03-18T07:55:11.566Z,950.79
2019-03-18T07:56:11.550Z,950.82
2019-03-18T07:57:11.531Z,950.84
2019-03-18T07:58:11.518Z,950.89
2019-03-18T07:59:11.498Z,950.94
2019-03-18T08:00:11.493Z,950.91
2019-03-18T08:01:11.465Z,950.88
2019-03-18T08:02:11.449Z,950.88
2019-03-18T08:03:11.435Z,950.92
2019-03-18T08:04:11.415Z,950.87
2019-03-18T08:05:11.398Z,950.96
2019-03-18T08:06:11.382Z,950.94
2019-03-18T08:07:11.366Z,950.9
2019-03-18T08:08:11.347Z,950.98
2019-03-18T08:09:11.332Z,950.98
2019-03-18T08:10:11.314Z,951
2019-03-18T08:11:11.306Z,951.04
2019-03-18T08:12:11.281Z,951.1
2019-03-18T08:13:11.265Z,951.03
2019-03-18T08:14:11.248Z,951.07
2019-03-18T08:15:11.233Z,951.07
2019-03-18T08:16:11.216Z,950.98
2019-03-18T08:17:11.201Z,951.08
2019-03-18T08:18:11.183Z,951.02
2019-03-18T08:19:11.166Z,950.99
2019-03-18T08:20:11.154Z,950.9
2019-03-18T08:21:11.135Z,950.96
2019-03-18T08:22:11.118Z,950.92
2019-03-18T08:23:11.100Z,950.91
2019-03-18T08:24:11.086Z,951.11
2019-03-18T08:25:11.069Z,950.98
2019-03-18T08:26:11.052Z,950.92
2019-03-18T08:27:11.041Z,951.01
2019-03-18T08:28:11.021Z,950.94
2019-03-18T08:29:11.005Z,950.98
2019-03-18T08:30:10.988Z,950.99
2019-03-18T08:31:10.972Z,950.97
2019-03-18T08:32:11.850Z,951.02
2019-03-18T08:33:10.942Z,950.98
2019-03-18T08:34:10.925Z,950.91
2019-03-18T08:35:11.001Z,950.98
2019-03-18T08:36:10.893Z,951.07
2019-03-18T08:37:10.878Z,951.15
2019-03-18T08:38:10.862Z,951.06
2019-03-18T08:39:10.851Z,951.08
2019-03-18T08:40:10.832Z,951.1
2019-03-18T08:41:10.819Z,951.12
2019-03-18T08:42:10.802Z,951.09
2019-03-18T08:43:10.786Z,951.12
2019-03-18T08:44:10.771Z,951.18
2019-03-18T08:45:10.757Z,951.16
2019-03-18T08:46:10.743Z,951.08
2019-03-18T08:47:10.726Z,951.09
2019-03-18T08:48:10.712Z,951.07
2019-03-18T08:49:10.695Z,951.05
2019-03-18T08:50:12.206Z,951.08
2019-03-18T08:51:10.665Z,951.02
2019-03-18T08:52:10.650Z,951.05
2019-03-18T08:53:10.635Z,950.97
2019-03-18T08:54:10.621Z,951.06
2019-03-18T08:55:10.606Z,951.06
2019-03-18T08:56:10.589Z,951.14
2019-03-18T08:57:10.575Z,951.11
2019-03-18T08:58:10.562Z,951.15
2019-03-18T08:59:10.562Z,951.24
2019-03-18T09:00:10.531Z,951.22
2019-03-18T09:01:10.518Z,951.17
2019-03-18T09:02:10.503Z,951.25
2019-03-18T09:03:10.487Z,951.17
2019-03-18T09:04:10.473Z,951.25
2019-03-18T09:05:10.462Z,951.32
2019-03-18T09:06:10.443Z,951.28
2019-03-18T09:07:10.479Z,951.22
2019-03-18T09:08:10.414Z,951.33
2019-03-18T09:09:10.400Z,951.21
2019-03-18T09:10:10.383Z,951.28
2019-03-18T09:11:10.369Z,951.32
2019-03-18T09:12:10.375Z,951.3
2019-03-18T09:13:10.339Z,951.35
2019-03-18T09:14:10.324Z,951.29
2019-03-18T09:15:10.310Z,951.32
2019-03-18T09:16:10.293Z,951.42
2019-03-18T09:17:10.279Z,951.43
2019-03-18T09:18:10.262Z,951.38
2019-03-18T09:19:10.249Z,951.32
2019-03-18T09:20:10.232Z,951.36
2019-03-18T09:21:10.218Z,951.42
2019-03-18T09:22:10.203Z,951.43
2019-03-18T09:23:10.188Z,951.44
2019-03-18T09:24:10.174Z,951.46
2019-03-18T09:25:10.155Z,951.5
2019-03-18T09:26:10.141Z,951.46
2019-03-18T09:27:10.126Z,951.43
2019-03-18T09:28:10.111Z,951.42
2019-03-18T09:29:10.096Z,951.42
2019-03-18T09:30:10.080Z,951.43
2019-03-18T09:31:10.077Z,951.4
2019-03-18T09:32:10.049Z,951.44
2019-03-18T09:33:10.035Z,951.47
2019-03-18T09:34:10.019Z,951.44
2019-03-18T09:35:10.005Z,951.48
2019-03-18T09:36:09.988Z,951.47
2019-03-18T09:37:09.973Z,951.45
2019-03-18T09:38:09.958Z,951.49
2019-03-18T09:39:09.942Z,951.51
2019-03-18T09:40:09.927Z,951.48
2019-03-18T09:41:09.932Z,951.53
2019-03-18T09:42:09.900Z,951.55
2019-03-18T09:43:09.881Z,951.54
2019-03-18T09:44:09.867Z,951.56
2019-03-18T09:45:09.852Z,951.56
2019-03-18T09:46:09.838Z,951.62
2019-03-18T09:47:09.820Z,951.62
2019-03-18T09:48:09.807Z,951.62
2019-03-18T09:49:20.888Z,951.71
2019-03-18T09:50:09.775Z,951.64
2019-03-18T09:51:09.844Z,951.69
2019-03-18T09:52:09.749Z,951.69
2019-03-18T09:53:09.881Z,951.73
2019-03-18T09:54:09.716Z,951.74
2019-03-18T09:55:09.702Z,951.76
2019-03-18T09:56:09.687Z,951.67
2019-03-18T09:57:09.675Z,951.76
2019-03-18T09:58:09.655Z,951.74
2019-03-18T09:59:09.642Z,951.77
2019-03-18T10:00:12.057Z,951.73
2019-03-18T10:01:09.611Z,951.73
2019-03-18T10:02:09.596Z,951.68
2019-03-18T10:03:09.581Z,951.71
2019-03-18T10:04:09.565Z,951.72
2019-03-18T10:05:09.549Z,951.72
2019-03-18T10:06:09.536Z,951.75
2019-03-18T10:07:09.523Z,951.75
2019-03-18T10:08:09.506Z,951.64
2019-03-18T10:09:09.493Z,951.65
2019-03-18T10:10:09.477Z,951.67
2019-03-18T10:11:09.463Z,951.69
2019-03-18T10:12:09.447Z,951.72
2019-03-18T10:13:09.432Z,951.79
2019-03-18T10:14:09.419Z,951.71
2019-03-18T10:15:09.404Z,951.74
2019-03-18T10:16:09.392Z,951.82
2019-03-18T10:17:10.168Z,951.82
2019-03-18T10:18:09.360Z,951.88
2019-03-18T10:19:09.344Z,951.9
2019-03-18T10:20:09.332Z,951.81
2019-03-18T10:21:09.315Z,951.93
2019-03-18T10:22:09.302Z,951.96
2019-03-18T10:23:09.286Z,951.87
2019-03-18T10:24:09.272Z,951.94
2019-03-18T10:25:09.260Z,951.92
2019-03-18T10:26:09.242Z,951.97
2019-03-18T10:27:09.228Z,951.95
2019-03-18T10:28:09.212Z,951.99
2019-03-18T10:29:09.197Z,951.93
2019-03-18T10:30:09.183Z,951.99
2019-03-18T10:31:09.168Z,951.99
2019-03-18T10:32:09.153Z,952.05
2019-03-18T10:33:09.138Z,952.05
2019-03-18T10:34:09.123Z,952.03
2019-03-18T10:35:09.108Z,952.08
2019-03-18T10:36:09.095Z,952.13
2019-03-18T10:37:09.078Z,952.13
2019-03-18T10:38:09.063Z,952.12
2019-03-18T10:39:09.049Z,952.1
2019-03-18T10:40:09.033Z,952.12
2019-03-18T10:41:09.018Z,952.2
2019-03-18T10:42:09.002Z,952.21
2019-03-18T10:43:08.989Z,952.17
2019-03-18T10:44:08.974Z,952.21
2019-03-18T10:45:08.964Z,952.23
2019-03-18T10:46:08.942Z,952.23
2019-03-18T10:47:08.927Z,952.24
2019-03-18T10:48:08.927Z,952.21
2019-03-18T10:49:08.898Z,952.22
2019-03-18T10:50:08.882Z,952.28
2019-03-18T10:51:08.868Z,952.3
2019-03-18T10:52:08.875Z,952.28
2019-03-18T10:53:08.835Z,952.37
2019-03-18T10:54:08.857Z,952.34
2019-03-18T10:55:08.833Z,952.37
2019-03-18T10:56:08.795Z,952.4
2019-03-18T10:57:08.775Z,952.39
2019-03-18T10:58:08.761Z,952.41
2019-03-18T10:59:08.744Z,952.4
2019-03-18T11:00:08.729Z,952.36
2019-03-18T11:01:08.714Z,952.33
2019-03-18T11:02:08.700Z,952.38
2019-03-18T11:03:08.690Z,952.38
2019-03-18T11:04:08.669Z,952.39
2019-03-18T11:05:08.656Z,952.35
2019-03-18T11:06:08.646Z,952.38
2019-03-18T11:07:08.623Z,952.43
2019-03-18T11:08:08.610Z,952.42
2019-03-18T11:09:08.594Z,952.4
2019-03-18T11:10:08.579Z,952.42
2019-03-18T11:11:08.562Z,952.45
2019-03-18T11:12:08.548Z,952.37
2019-03-18T11:13:08.534Z,952.37
2019-03-18T11:14:08.518Z,952.4
2019-03-18T11:15:08.503Z,952.4
2019-03-18T11:16:08.487Z,952.43
2019-03-18T11:17:08.473Z,952.38
2019-03-18T11:18:08.457Z,952.42
2019-03-18T11:19:08.442Z,952.47
2019-03-18T11:20:08.428Z,952.45
2019-03-18T11:21:08.413Z,952.47
2019-03-18T11:22:08.398Z,952.57
2019-03-18T11:23:08.384Z,952.46
2019-03-18T11:24:08.370Z,952.46
2019-03-18T11:25:08.358Z,952.48
2019-03-18T11:26:08.339Z,952.5
2019-03-18T11:27:08.325Z,952.45
2019-03-18T11:28:08.313Z,952.5
2019-03-18T11:29:08.296Z,952.49
2019-03-18T11:30:08.283Z,952.52
2019-03-18T11:31:08.270Z,952.4
2019-03-18T11:32:08.255Z,952.45
2019-03-18T11:33:08.239Z,952.48
2019-03-18T11:34:08.227Z,952.53
2019-03-18T11:35:08.213Z,952.51
2019-03-18T11:36:08.197Z,952.53
2019-03-18T11:37:08.184Z,952.51
2019-03-18T11:38:08.171Z,952.48
2019-03-18T11:39:08.157Z,952.46
2019-03-18T11:40:08.141Z,952.48
2019-03-18T11:41:08.129Z,952.48
2019-03-18T11:42:08.115Z,952.51
2019-03-18T11:43:08.101Z,952.54
2019-03-18T11:44:08.087Z,952.47
2019-03-18T11:45:08.386Z,952.47
2019-03-18T11:46:08.059Z,952.53
2019-03-18T11:47:08.044Z,952.51
2019-03-18T11:48:08.037Z,952.54
2019-03-18T11:49:08.017Z,952.55
2019-03-18T11:50:11.218Z,952.53
2019-03-18T11:51:07.991Z,952.52
2019-03-18T11:52:07.976Z,952.5
2019-03-18T11:53:14.025Z,952.52
2019-03-18T11:54:07.949Z,952.49
2019-03-18T11:55:07.943Z,952.46
2019-03-18T11:56:07.921Z,952.47
2019-03-18T11:57:07.908Z,952.51
2019-03-18T11:58:07.894Z,952.46
2019-03-18T11:59:07.881Z,952.51
2019-03-18T12:00:07.867Z,952.45
2019-03-18T12:01:07.853Z,952.52
2019-03-18T12:02:07.839Z,952.52
2019-03-18T12:03:07.827Z,952.48
2019-03-18T12:04:07.813Z,952.41
2019-03-18T12:05:07.802Z,952.51
2019-03-18T12:06:07.785Z,952.54
2019-03-18T12:07:07.772Z,952.53
2019-03-18T12:08:07.759Z,952.6
2019-03-18T12:09:07.743Z,952.59
2019-03-18T12:10:07.730Z,952.6
2019-03-18T12:11:07.716Z,952.56
2019-03-18T12:12:07.702Z,952.49
2019-03-18T12:13:07.688Z,952.5
2019-03-18T12:14:07.674Z,952.48
2019-03-18T12:15:07.660Z,952.44
2019-03-18T12:16:07.647Z,952.49
2019-03-18T12:17:07.631Z,952.48
2019-03-18T12:18:07.620Z,952.52
2019-03-18T12:19:07.605Z,952.53
2019-03-18T12:20:07.590Z,952.44
2019-03-18T12:21:07.577Z,952.42
2019-03-18T12:22:07.566Z,952.44
2019-03-18T12:23:07.548Z,952.44
2019-03-18T12:24:07.535Z,952.43
2019-03-18T12:25:07.521Z,952.43
2019-03-18T12:26:07.506Z,952.44
2019-03-18T12:27:07.492Z,952.45
2019-03-18T12:28:07.477Z,952.41
2019-03-18T12:29:07.464Z,952.42
2019-03-18T12:30:07.450Z,952.45